Time,TemperatureF,DewpointF,PressureIn,WindDirection,WindDirectionDegrees,WindSpeedMPH,WindSpeedGustMPH,Humidity,HourlyPrecipIn,Conditions,Clouds,dailyrainin,SolarRadiationWatts/m^2,SoftwareType,DateUTC
2013-04-27 00:02:00,49.0,48.0,-100.00,East,94,3.0,7.0,97,0.02,,,0.34,0.000000,,2013-04-27 05:02:00,
2013-04-27 00:12:00,49.0,48.0,-100.00,East,94,3.0,7.0,97,0.02,,,0.34,0.000000,,2013-04-27 05:12:00,
2013-04-27 00:22:00,49.0,48.0,-100.00,East,94,3.0,7.0,97,0.02,,,0.34,0.000000,,2013-04-27 05:22:00,
2013-04-27 00:52:00,49.0,48.0,-100.00,ESE,120,2.0,4.0,98,0.06,,,0.40,0.000000,,2013-04-27 05:52:00,
2013-04-27 01:02:00,49.0,48.0,-100.00,ESE,120,2.0,4.0,98,0.06,,,0.40,0.000000,,2013-04-27 06:02:00,
2013-04-27 01:12:00,49.0,48.0,-100.00,ESE,120,2.0,4.0,98,0.06,,,0.40,0.000000,,2013-04-27 06:12:00,
2013-04-27 01:22:00,49.0,48.0,-100.00,ESE,120,2.0,4.0,98,0.06,,,0.40,0.000000,,2013-04-27 06:22:00,
2013-04-27 01:52:00,49.0,48.0,-100.00,SE,129,3.0,6.0,98,0.21,,,0.61,0.000000,,2013-04-27 06:52:00,
2013-04-27 02:01:00,49.0,48.0,-100.00,SE,129,3.0,6.0,98,0.21,,,0.61,0.000000,,2013-04-27 07:01:00,
2013-04-27 02:11:00,49.0,48.0,-100.00,SE,129,3.0,6.0,98,0.21,,,0.61,0.000000,,2013-04-27 07:11:00,
2013-04-27 02:21:00,49.0,48.0,-100.00,SE,129,3.0,6.0,98,0.21,,,0.61,0.000000,,2013-04-27 07:21:00,
2013-04-27 02:52:00,49.0,48.0,-100.00,ESE,122,3.0,6.0,98,0.06,,,0.67,0.000000,,2013-04-27 07:52:00,
2013-04-27 03:01:00,49.0,48.0,-100.00,ESE,122,3.0,6.0,98,0.06,,,0.67,0.000000,,2013-04-27 08:01:00,
2013-04-27 03:11:00,49.0,48.0,-100.00,ESE,122,3.0,6.0,98,0.06,,,0.67,0.000000,,2013-04-27 08:11:00,
2013-04-27 03:21:00,49.0,48.0,-100.00,ESE,122,3.0,6.0,98,0.06,,,0.67,0.000000,,2013-04-27 08:21:00,
2013-04-27 03:52:00,49.0,48.0,-100.00,East,88,3.0,9.0,98,0.02,,,0.69,0.000000,,2013-04-27 08:52:00,
2013-04-27 04:01:00,49.0,48.0,-100.00,East,88,3.0,9.0,98,0.02,,,0.69,0.000000,,2013-04-27 09:01:00,
2013-04-27 04:11:00,49.0,48.0,-100.00,East,88,3.0,9.0,98,0.02,,,0.69,0.000000,,2013-04-27 09:11:00,
2013-04-27 04:21:00,49.0,48.0,-100.00,East,88,3.0,9.0,98,0.02,,,0.69,0.000000,,2013-04-27 09:21:00,
2013-04-27 04:53:00,49.0,48.0,-100.00,NNE,28,4.0,10.0,98,0.02,,,0.71,0.000000,,2013-04-27 09:53:00,
2013-04-27 05:02:00,49.0,48.0,-100.00,NNE,28,4.0,10.0,98,0.02,,,0.71,0.000000,,2013-04-27 10:02:00,
2013-04-27 05:12:00,49.0,48.0,-100.00,NNE,28,4.0,10.0,98,0.02,,,0.71,0.000000,,2013-04-27 10:12:00,
2013-04-27 05:22:00,49.0,48.0,-100.00,NNE,28,4.0,10.0,98,0.02,,,0.71,0.000000,,2013-04-27 10:22:00,
2013-04-27 05:52:00,50.0,49.0,-100.00,East,91,4.0,10.0,98,0.12,,,0.83,0.000000,,2013-04-27 10:52:00,
2013-04-27 06:02:00,50.0,49.0,-100.00,East,91,4.0,10.0,98,0.12,,,0.83,0.000000,,2013-04-27 11:02:00,
2013-04-27 06:12:00,50.0,49.0,-100.00,East,91,4.0,10.0,98,0.12,,,0.83,0.000000,,2013-04-27 11:12:00,
2013-04-27 06:22:00,50.0,49.0,-100.00,East,91,4.0,10.0,98,0.12,,,0.83,0.000000,,2013-04-27 11:22:00,
2013-04-27 06:52:00,50.0,49.0,-100.00,ESE,115,5.0,11.0,98,0.27,,,1.10,0.000000,,2013-04-27 11:52:00,
2013-04-27 07:01:00,50.0,49.0,-100.00,ESE,115,5.0,11.0,98,0.27,,,1.10,0.000000,,2013-04-27 12:01:00,
2013-04-27 07:11:00,50.0,49.0,-100.00,ESE,115,5.0,11.0,98,0.27,,,1.10,0.000000,,2013-04-27 12:11:00,
2013-04-27 07:21:00,50.0,49.0,-100.00,ESE,115,5.0,11.0,98,0.27,,,1.10,0.000000,,2013-04-27 12:21:00,
2013-04-27 07:52:00,51.0,50.0,-100.00,ESE,114,5.0,13.0,98,0.22,,,1.32,4.000000,,2013-04-27 12:52:00,
2013-04-27 08:02:00,51.0,50.0,-100.00,ESE,114,5.0,13.0,98,0.22,,,1.32,4.000000,,2013-04-27 13:02:00,
2013-04-27 08:11:00,51.0,50.0,-100.00,ESE,114,5.0,13.0,98,0.22,,,1.32,4.000000,,2013-04-27 13:11:00,
2013-04-27 08:21:00,51.0,50.0,-100.00,ESE,114,5.0,13.0,98,0.22,,,1.32,4.000000,,2013-04-27 13:21:00,
2013-04-27 08:52:00,51.0,50.0,-100.00,East,97,5.0,11.0,98,0.23,,,1.55,10.000000,,2013-04-27 13:52:00,
2013-04-27 09:02:00,51.0,50.0,-100.00,East,97,5.0,11.0,98,0.23,,,1.55,10.000000,,2013-04-27 14:02:00,
2013-04-27 09:11:00,51.0,50.0,-100.00,East,97,5.0,11.0,98,0.23,,,1.55,10.000000,,2013-04-27 14:11:00,
2013-04-27 09:21:00,51.0,50.0,-100.00,East,97,5.0,11.0,98,0.23,,,1.55,10.000000,,2013-04-27 14:21:00,
2013-04-27 09:52:00,52.0,51.0,-100.00,SE,127,4.0,10.0,98,0.10,,,1.65,18.000000,,2013-04-27 14:52:00,
2013-04-27 10:01:00,52.0,51.0,-100.00,SE,127,4.0,10.0,98,0.10,,,1.65,18.000000,,2013-04-27 15:01:00,
2013-04-27 10:12:00,52.0,51.0,-100.00,SE,127,4.0,10.0,98,0.10,,,1.65,18.000000,,2013-04-27 15:12:00,
2013-04-27 10:22:00,52.0,51.0,-100.00,SE,127,4.0,10.0,98,0.10,,,1.65,18.000000,,2013-04-27 15:22:00,
2013-04-27 10:53:00,53.0,53.0,-100.00,NNE,18,2.0,7.0,99,0.26,,,1.91,14.000000,,2013-04-27 15:53:00,
2013-04-27 11:03:00,53.0,53.0,-100.00,NNE,18,2.0,7.0,99,0.26,,,1.91,14.000000,,2013-04-27 16:03:00,
2013-04-27 11:13:00,53.0,53.0,-100.00,NNE,18,2.0,7.0,99,0.26,,,1.91,14.000000,,2013-04-27 16:13:00,
2013-04-27 11:22:00,53.0,53.0,-100.00,NNE,18,2.0,7.0,99,0.26,,,1.91,14.000000,,2013-04-27 16:22:00,
2013-04-27 11:53:00,54.0,53.0,-100.00,East,90,3.0,8.0,98,0.04,,,1.94,99.000000,,2013-04-27 16:53:00,
2013-04-27 12:02:00,54.0,53.0,-100.00,East,90,3.0,8.0,98,0.04,,,1.94,99.000000,,2013-04-27 17:02:00,
2013-04-27 12:12:00,54.0,53.0,-100.00,East,90,3.0,8.0,98,0.04,,,1.94,99.000000,,2013-04-27 17:12:00,
2013-04-27 12:22:00,54.0,53.0,-100.00,East,90,3.0,8.0,98,0.04,,,1.94,99.000000,,2013-04-27 17:22:00,
2013-04-27 12:53:00,58.0,57.0,-100.00,SE,125,5.0,9.0,95,0.02,,,1.93,204.000000,,2013-04-27 17:53:00,
2013-04-27 13:02:00,58.0,57.0,-100.00,SE,125,5.0,9.0,95,0.02,,,1.93,204.000000,,2013-04-27 18:02:00,
2013-04-27 13:12:00,58.0,57.0,-100.00,SE,125,5.0,9.0,95,0.02,,,1.93,204.000000,,2013-04-27 18:12:00,
2013-04-27 13:22:00,58.0,57.0,-100.00,SE,125,5.0,9.0,95,0.02,,,1.93,204.000000,,2013-04-27 18:22:00,
2013-04-27 13:52:00,58.0,56.0,-100.00,SSE,150,7.0,13.0,93,0.01,,,1.90,394.000000,,2013-04-27 18:52:00,
2013-04-27 14:02:00,58.0,56.0,-100.00,SSE,150,7.0,13.0,93,0.01,,,1.90,394.000000,,2013-04-27 19:02:00,
2013-04-27 14:11:00,58.0,56.0,-100.00,SSE,150,7.0,13.0,93,0.01,,,1.90,394.000000,,2013-04-27 19:11:00,
2013-04-27 14:21:00,58.0,56.0,-100.00,SSE,150,7.0,13.0,93,0.01,,,1.90,394.000000,,2013-04-27 19:21:00,
2013-04-27 14:53:00,59.0,57.0,-100.00,SSE,149,5.0,14.0,94,0.00,,,1.89,214.000000,,2013-04-27 19:53:00,
2013-04-27 15:02:00,59.0,57.0,-100.00,SSE,149,5.0,14.0,94,0.00,,,1.89,214.000000,,2013-04-27 20:02:00,
2013-04-27 15:11:00,59.0,57.0,-100.00,SSE,149,5.0,14.0,94,0.00,,,1.89,214.000000,,2013-04-27 20:11:00,
2013-04-27 15:21:00,59.0,57.0,-100.00,SSE,149,5.0,14.0,94,0.00,,,1.89,214.000000,,2013-04-27 20:21:00,
2013-04-27 15:52:00,58.0,57.0,-100.00,SE,125,4.0,11.0,96,0.04,,,1.93,114.000000,,2013-04-27 20:52:00,
2013-04-27 16:02:00,58.0,57.0,-100.00,SE,125,4.0,11.0,96,0.04,,,1.93,114.000000,,2013-04-27 21:02:00,
2013-04-27 16:12:00,58.0,57.0,-100.00,SE,125,4.0,11.0,96,0.04,,,1.93,114.000000,,2013-04-27 21:12:00,
2013-04-27 16:21:00,58.0,57.0,-100.00,SE,125,4.0,11.0,96,0.04,,,1.93,114.000000,,2013-04-27 21:21:00,
2013-04-27 16:53:00,59.0,58.0,-100.00,SE,133,4.0,9.0,96,0.14,,,2.05,100.000000,,2013-04-27 21:53:00,
2013-04-27 17:02:00,59.0,58.0,-100.00,SE,133,4.0,9.0,96,0.14,,,2.05,100.000000,,2013-04-27 22:02:00,
2013-04-27 17:13:00,59.0,58.0,-100.00,SE,133,4.0,9.0,96,0.14,,,2.05,100.000000,,2013-04-27 22:13:00,
2013-04-27 17:22:00,59.0,58.0,-100.00,SE,133,4.0,9.0,96,0.14,,,2.05,100.000000,,2013-04-27 22:22:00,
2013-04-27 17:53:00,60.0,59.0,-100.00,ESE,123,4.0,9.0,98,0.11,,,2.12,61.000000,,2013-04-27 22:53:00,
2013-04-27 18:02:00,60.0,59.0,-100.00,ESE,123,4.0,9.0,98,0.11,,,2.12,61.000000,,2013-04-27 23:02:00,
2013-04-27 18:11:00,60.0,59.0,-100.00,ESE,123,4.0,9.0,98,0.11,,,2.12,61.000000,,2013-04-27 23:11:00,
2013-04-27 18:22:00,60.0,59.0,-100.00,ESE,123,4.0,9.0,98,0.11,,,2.12,61.000000,,2013-04-27 23:22:00,
2013-04-27 18:52:00,60.0,59.0,-100.00,SE,143,2.0,10.0,98,0.96,,,3.08,2.000000,,2013-04-27 23:52:00,
2013-04-27 19:01:00,60.0,59.0,-100.00,SE,143,2.0,10.0,98,0.96,,,3.08,2.000000,,2013-04-28 00:01:00,
2013-04-27 19:11:00,60.0,59.0,-100.00,SE,143,2.0,10.0,98,0.96,,,3.08,2.000000,,2013-04-28 00:11:00,
2013-04-27 19:21:00,60.0,59.0,-100.00,SE,143,2.0,10.0,98,0.96,,,3.08,2.000000,,2013-04-28 00:21:00,
2013-04-27 19:52:00,59.0,59.0,-100.00,East,96,2.0,7.0,99,0.53,,,-99.99,1.000000,,2013-04-28 00:52:00,
2013-04-27 20:01:00,59.0,59.0,-100.00,East,96,2.0,7.0,99,0.53,,,-99.99,1.000000,,2013-04-28 01:01:00,
2013-04-27 20:11:00,59.0,59.0,-100.00,East,96,2.0,7.0,99,0.53,,,-99.99,1.000000,,2013-04-28 01:11:00,
2013-04-27 20:21:00,59.0,59.0,-100.00,East,96,2.0,7.0,99,0.53,,,-99.99,1.000000,,2013-04-28 01:21:00,
2013-04-27 20:52:00,59.0,59.0,-100.00,ESE,122,3.0,9.0,99,0.75,,,4.35,0.000000,,2013-04-28 01:52:00,
2013-04-27 21:02:00,59.0,59.0,-100.00,ESE,122,3.0,9.0,99,0.75,,,4.35,0.000000,,2013-04-28 02:02:00,
2013-04-27 21:12:00,59.0,59.0,-100.00,ESE,122,3.0,9.0,99,0.75,,,4.35,0.000000,,2013-04-28 02:12:00,
2013-04-27 21:22:00,59.0,59.0,-100.00,ESE,122,3.0,9.0,99,0.75,,,4.35,0.000000,,2013-04-28 02:22:00,
2013-04-27 21:52:00,59.0,59.0,-100.00,ESE,119,6.0,10.0,99,0.18,,,4.53,0.000000,,2013-04-28 02:52:00,
2013-04-27 22:01:00,59.0,59.0,-100.00,ESE,119,6.0,10.0,99,0.18,,,4.53,0.000000,,2013-04-28 03:01:00,
2013-04-27 22:11:00,59.0,59.0,-100.00,ESE,119,6.0,10.0,99,0.18,,,4.53,0.000000,,2013-04-28 03:11:00,
2013-04-27 22:21:00,59.0,59.0,-100.00,ESE,119,6.0,10.0,99,0.18,,,4.53,0.000000,,2013-04-28 03:21:00,
2013-04-27 22:53:00,58.0,58.0,-100.00,East,86,4.0,7.0,99,0.18,,,4.55,0.000000,,2013-04-28 03:53:00,
2013-04-27 23:03:00,58.0,58.0,-100.00,East,86,4.0,7.0,99,0.18,,,4.55,0.000000,,2013-04-28 04:03:00,
2013-04-27 23:13:00,58.0,58.0,-100.00,East,86,4.0,7.0,99,0.18,,,4.55,0.000000,,2013-04-28 04:13:00,
2013-04-27 23:23:00,58.0,58.0,-100.00,East,86,4.0,7.0,99,0.18,,,4.55,0.000000,,2013-04-28 04:23:00,
2013-04-27 23:53:00,58.0,58.0,-100.00,ESE,119,3.0,8.0,99,0.59,,,5.12,0.000000,,2013-04-28 04:53:00,